Time;durP1;ratioP1;P1;durP2;ratioP2;P2;SDS_P1;SDS_P2;PMS_P1;PMS_P2;Temp;Humidity;BMP_temperature;BMP_pressure;BME280_temperature;BME280_humidity;BME280_pressure;Samples;Min_cycle;Max_cycle;Signal;HPM_P1;HPM_P2
2024/02/18 00:00:04;;;;;;;21.17;15.30;;;;;;;2.21;100.00;103308.84;10345497;28;20054;-71
2024/02/18 00:05:04;;;;;;;29.30;15.43;;;;;;;2.23;100.00;103333.78;10359091;27;20117;-71
2024/02/18 00:10:01;;;;;;;26.13;14.93;;;;;;;2.14;100.00;103334.97;10352763;28;20074;-71
2024/02/18 00:14:57;;;;;;;20.88;15.27;;;;;;;2.15;100.00;103323.13;10344309;28;20056;-71
2024/02/18 00:19:54;;;;;;;24.67;13.65;;;;;;;2.07;100.00;103317.88;10355122;27;20040;-71
2024/02/18 00:24:51;;;;;;;22.10;13.85;;;;;;;2.01;100.00;103307.88;10357226;27;20052;-71
2024/02/18 00:29:47;;;;;;;17.35;13.05;;;;;;;2.10;100.00;103285.09;10345939;27;20039;-71
2024/02/18 00:34:44;;;;;;;18.77;13.75;;;;;;;2.34;100.00;103285.66;10345745;27;20520;-70
2024/02/18 00:39:40;;;;;;;20.60;13.00;;;;;;;2.51;100.00;103282.41;10343354;27;20040;-71
2024/02/18 00:44:37;;;;;;;18.15;12.90;;;;;;;2.74;100.00;103282.09;10348805;27;20040;-70
2024/02/18 00:49:34;;;;;;;18.05;12.70;;;;;;;2.90;100.00;103269.25;10350529;27;20051;-69
2024/02/18 00:54:31;;;;;;;22.05;13.00;;;;;;;2.93;100.00;103258.06;10345398;27;20079;-70
2024/02/18 00:59:28;;;;;;;19.35;13.55;;;;;;;3.03;100.00;103263.88;10347886;27;20052;-70
2024/02/18 01:04:24;;;;;;;13.88;11.55;;;;;;;2.98;100.00;103269.06;10351995;27;20093;-71
2024/02/18 01:09:21;;;;;;;26.13;13.00;;;;;;;2.91;100.00;103249.31;10348731;27;20760;-70
2024/02/18 01:14:18;;;;;;;19.58;12.88;;;;;;;2.92;100.00;103250.97;10349248;27;20075;-70
2024/02/18 01:19:14;;;;;;;22.30;11.98;;;;;;;3.03;100.00;103242.25;10343738;27;20044;-71
2024/02/18 01:24:11;;;;;;;21.98;11.82;;;;;;;2.95;100.00;103239.75;10339717;27;20052;-70
2024/02/18 01:29:07;;;;;;;18.33;12.20;;;;;;;3.06;100.00;103225.63;10356610;27;20468;-71
2024/02/18 01:34:04;;;;;;;18.60;11.32;;;;;;;3.06;100.00;103231.03;10341405;27;20044;-71
2024/02/18 01:39:01;;;;;;;21.60;12.45;;;;;;;3.12;100.00;103232.91;10338921;27;20496;-71
2024/02/18 01:43:57;;;;;;;17.45;11.20;;;;;;;3.14;100.00;103211.91;10343384;27;20044;-70
2024/02/18 01:48:54;;;;;;;17.45;11.48;;;;;;;3.14;100.00;103203.81;10347057;27;20121;-71
2024/02/18 01:53:51;;;;;;;16.27;11.88;;;;;;;3.24;100.00;103189.03;10342640;27;20433;-70
2024/02/18 01:58:48;;;;;;;16.55;10.93;;;;;;;3.28;100.00;103198.41;10337787;28;20050;-70
2024/02/18 02:03:45;;;;;;;20.15;10.30;;;;;;;3.36;100.00;103204.44;10338459;28;20813;-70
2024/02/18 02:08:43;;;;;;;17.92;10.40;;;;;;;3.28;100.00;103179.47;10347131;27;20123;-72
2024/02/18 02:13:40;;;;;;;23.17;10.73;;;;;;;3.26;100.00;103181.56;10345973;27;20667;-73
2024/02/18 02:18:36;;;;;;;13.00;10.02;;;;;;;3.27;100.00;103170.53;10342924;28;20449;-72
2024/02/18 02:23:34;;;;;;;18.08;9.75;;;;;;;3.30;100.00;103166.59;10337779;27;20066;-72
2024/02/18 02:28:36;;;;;;;19.40;10.35;;;;;;;3.38;100.00;103175.31;10351186;27;20065;-72
2024/02/18 02:33:32;;;;;;;;;;;;;;;3.40;100.00;103172.41;10342480;27;20068;-72
2024/02/18 02:38:29;;;;;;;18.90;9.73;;;;;;;3.41;100.00;103168.63;10348015;27;20459;-72
2024/02/18 02:43:26;;;;;;;13.00;8.80;;;;;;;3.43;100.00;103138.69;10352972;28;20052;-70
2024/02/18 02:48:22;;;;;;;14.75;8.90;;;;;;;3.47;100.00;103157.00;10353225;27;20766;-69
2024/02/18 02:53:19;;;;;;;20.35;8.52;;;;;;;3.59;100.00;103149.88;10355499;27;20083;-71
2024/02/18 02:58:16;;;;;;;11.30;8.90;;;;;;;3.58;100.00;103159.06;10362041;27;20527;-70
2024/02/18 03:03:12;;;;;;;19.20;9.05;;;;;;;3.62;100.00;103136.97;10352332;27;20055;-70
2024/02/18 03:08:09;;;;;;;13.27;8.35;;;;;;;3.52;100.00;103116.59;10354060;27;20039;-70
2024/02/18 03:13:05;;;;;;;12.70;8.57;;;;;;;3.42;100.00;103116.22;10349469;27;20041;-69
2024/02/18 03:18:05;;;;;;;19.85;10.07;;;;;;;3.40;100.00;103118.31;10364381;27;20127;-72
2024/02/18 03:23:02;;;;;;;24.75;9.95;;;;;;;3.36;100.00;103117.06;10355247;27;20055;-72
2024/02/18 03:27:59;;;;;;;12.68;9.18;;;;;;;3.43;100.00;103100.81;10359198;27;20040;-72
2024/02/18 03:32:56;;;;;;;13.98;8.77;;;;;;;3.54;100.00;103103.69;10341075;27;20059;-71
2024/02/18 03:37:56;;;;;;;18.92;8.90;;;;;;;3.54;100.00;103101.00;10352505;27;20526;-71
2024/02/18 03:42:52;;;;;;;16.02;8.77;;;;;;;3.63;100.00;103098.06;10345121;27;20067;-71
2024/02/18 03:47:49;;;;;;;16.83;8.75;;;;;;;3.54;100.00;103087.47;10347887;27;20040;-70
2024/02/18 03:52:46;;;;;;;14.52;8.70;;;;;;;3.55;100.00;103072.94;10345062;28;20573;-71
2024/02/18 03:57:43;;;;;;;15.27;9.48;;;;;;;3.46;100.00;103066.09;10353573;27;20043;-71
2024/02/18 04:02:40;;;;;;;20.27;9.32;;;;;;;3.52;100.00;103064.38;10351869;27;20068;-70
2024/02/18 04:07:37;;;;;;;14.40;9.15;;;;;;;3.45;100.00;103069.81;10340288;27;20481;-70
2024/02/18 04:12:34;;;;;;;13.90;9.43;;;;;;;3.45;100.00;103059.00;10352925;27;20052;-71
2024/02/18 04:17:31;;;;;;;16.23;9.27;;;;;;;3.44;100.00;103065.47;10351607;27;20051;-72
2024/02/18 04:22:28;;;;;;;17.00;10.55;;;;;;;3.42;100.00;103062.13;10344948;27;20044;-72
2024/02/18 04:27:24;;;;;;;15.90;9.02;;;;;;;3.45;100.00;103045.47;10344975;27;20052;-71
2024/02/18 04:32:21;;;;;;;13.20;9.98;;;;;;;3.43;100.00;103052.13;10333272;28;20051;-73
2024/02/18 04:37:18;;;;;;;11.35;10.18;;;;;;;3.45;100.00;103040.06;10335422;28;20044;-72
2024/02/18 04:42:14;;;;;;;13.15;9.48;;;;;;;3.52;100.00;103023.81;10338829;28;20059;-72
2024/02/18 04:47:10;;;;;;;16.25;9.25;;;;;;;3.54;100.00;103027.13;10340429;27;20048;-72
2024/02/18 04:52:07;;;;;;;14.35;9.60;;;;;;;3.62;100.00;103017.94;10349498;27;20087;-73
2024/02/18 04:57:05;;;;;;;12.48;9.65;;;;;;;3.70;100.00;103005.00;10349164;28;20048;-71
2024/02/18 05:02:02;;;;;;;15.90;9.35;;;;;;;3.77;100.00;102994.16;10345777;27;20115;-71
2024/02/18 05:06:59;;;;;;;16.77;9.68;;;;;;;3.75;100.00;102993.53;10365413;27;20040;-71
2024/02/18 05:11:56;;;;;;;14.85;10.95;;;;;;;3.85;100.00;102991.19;10346873;27;20052;-71
2024/02/18 05:16:53;;;;;;;12.68;10.25;;;;;;;3.85;100.00;102991.19;10350531;27;20075;-70
2024/02/18 05:21:49;;;;;;;13.43;10.57;;;;;;;3.78;100.00;102985.84;10350479;27;20040;-70
2024/02/18 05:26:46;;;;;;;13.32;10.50;;;;;;;3.89;100.00;102987.00;10351622;27;20574;-70
2024/02/18 05:31:42;;;;;;;14.95;11.18;;;;;;;3.83;100.00;102971.66;10351302;28;20035;-72
2024/02/18 05:36:43;;;;;;;15.55;10.75;;;;;;;3.91;100.00;102970.56;10334704;27;20047;-71
2024/02/18 05:41:40;;;;;;;18.55;12.13;;;;;;;3.90;100.00;102964.31;10335449;27;20036;-71
2024/02/18 05:46:36;;;;;;;21.98;12.23;;;;;;;3.90;100.00;102967.03;10348281;27;20044;-70
2024/02/18 05:51:33;;;;;;;15.95;12.32;;;;;;;3.87;100.00;102944.97;10345144;27;20461;-70
2024/02/18 05:56:29;;;;;;;20.08;12.45;;;;;;;3.82;100.00;102942.91;10344162;28;20127;-70
2024/02/18 06:01:26;;;;;;;17.77;12.18;;;;;;;3.84;100.00;102927.28;10342866;27;20514;-70
2024/02/18 06:06:23;;;;;;;18.42;12.52;;;;;;;3.84;100.00;102921.06;10327447;27;20051;-71
2024/02/18 06:11:19;;;;;;;15.38;13.10;;;;;;;3.86;100.00;102924.38;10345186;27;20396;-72
2024/02/18 06:16:17;;;;;;;24.42;14.10;;;;;;;3.90;100.00;102902.06;10355977;27;20052;-72
2024/02/18 06:21:20;;;;;;;24.63;14.55;;;;;;;3.97;100.00;102880.38;10358988;27;20036;-72
2024/02/18 06:26:17;;;;;;;27.23;15.07;;;;;;;4.07;100.00;102874.47;10356924;27;20035;-72
2024/02/18 06:31:14;;;;;;;24.42;16.35;;;;;;;4.16;100.00;102862.28;10359562;27;20040;-72
2024/02/18 06:36:10;;;;;;;31.20;15.68;;;;;;;4.20;100.00;102860.78;10345817;27;20044;-72
2024/02/18 06:41:07;;;;;;;26.17;16.77;;;;;;;4.30;100.00;102855.69;10349899;27;20097;-73
2024/02/18 06:46:03;;;;;;;33.05;17.63;;;;;;;4.35;100.00;102845.03;10355377;27;20048;-72
2024/02/18 06:51:00;;;;;;;29.80;18.02;;;;;;;4.34;100.00;102827.13;10349228;27;20041;-70
2024/02/18 06:55:57;;;;;;;30.27;18.00;;;;;;;4.40;100.00;102826.22;10338493;27;20415;-70
2024/02/18 07:00:53;;;;;;;31.50;18.30;;;;;;;4.40;100.00;102809.97;10357136;27;20492;-70
2024/02/18 07:05:50;;;;;;;33.53;17.50;;;;;;;4.45;100.00;102813.88;10355976;28;20068;-70
2024/02/18 07:10:46;;;;;;;29.73;17.60;;;;;;;4.46;100.00;102792.00;10356832;27;20039;-70
2024/02/18 07:15:43;;;;;;;26.67;17.98;;;;;;;4.55;100.00;102800.63;10351535;27;20097;-70
2024/02/18 07:20:39;;;;;;;27.38;17.02;;;;;;;4.60;100.00;102781.81;10353292;27;20285;-72
2024/02/18 07:25:36;;;;;;;25.30;17.60;;;;;;;4.70;100.00;102787.53;10342118;27;20048;-72
2024/02/18 07:30:32;;;;;;;29.65;17.65;;;;;;;4.80;100.00;102777.00;10362682;27;20111;-70
2024/02/18 07:35:29;;;;;;;32.15;17.38;;;;;;;4.87;100.00;102771.47;10346944;28;20675;-70
2024/02/18 07:40:25;;;;;;;27.48;17.23;;;;;;;4.97;100.00;102777.19;10353665;27;20050;-70
2024/02/18 07:45:22;;;;;;;27.52;17.73;;;;;;;5.01;100.00;102766.69;10353820;27;20044;-71
2024/02/18 07:50:18;;;;;;;28.50;18.38;;;;;;;5.14;100.00;102761.06;10344794;27;20071;-69
2024/02/18 07:55:15;;;;;;;26.17;18.13;;;;;;;5.20;100.00;102760.16;10355101;27;20044;-69
2024/02/18 08:00:14;;;;;;;23.83;17.10;;;;;;;5.27;100.00;102755.47;10352984;27;20055;-70
2024/02/18 08:05:11;;;;;;;28.58;17.67;;;;;;;5.26;100.00;102751.06;10350501;27;20094;-70
2024/02/18 08:10:08;;;;;;;27.55;19.38;;;;;;;5.31;100.00;102738.72;10350369;28;20048;-73
2024/02/18 08:15:05;;;;;;;32.10;18.67;;;;;;;5.23;100.00;102737.16;10348950;27;20070;-70
2024/02/18 08:20:02;;;;;;;27.27;19.77;;;;;;;5.27;100.00;102732.94;10348832;27;20071;-69
2024/02/18 08:24:59;;;;;;;27.45;18.52;;;;;;;5.39;100.00;102717.50;10349111;28;20514;-69
2024/02/18 08:29:55;;;;;;;28.90;17.92;;;;;;;5.53;100.00;102712.69;10336777;27;20071;-71
2024/02/18 08:34:52;;;;;;;30.67;19.92;;;;;;;5.61;100.00;102716.94;10346111;27;20044;-70
2024/02/18 08:39:48;;;;;;;34.53;19.08;;;;;;;5.66;100.00;102708.91;10348187;27;20519;-69
2024/02/18 08:44:45;;;;;;;26.48;18.67;;;;;;;5.74;100.00;102696.88;10348868;28;20036;-70
2024/02/18 08:49:42;;;;;;;34.75;20.40;;;;;;;5.76;100.00;102692.03;10348518;27;20040;-70
2024/02/18 08:54:42;;;;;;;28.95;19.17;;;;;;;5.85;100.00;102690.63;10351736;27;20048;-69
2024/02/18 08:59:41;;;;;;;26.17;19.05;;;;;;;5.83;100.00;102681.88;10346254;28;20676;-70
2024/02/18 09:04:38;;;;;;;31.75;20.23;;;;;;;5.91;100.00;102676.06;10337677;27;20048;-69
2024/02/18 09:09:35;;;;;;;25.85;19.23;;;;;;;5.98;100.00;102663.22;10345144;27;20510;-70
2024/02/18 09:14:31;;;;;;;29.92;19.50;;;;;;;6.13;100.00;102653.75;10350375;28;20503;-70
2024/02/18 09:19:28;;;;;;;39.40;22.17;;;;;;;6.18;100.00;102651.16;10351776;27;20036;-70
2024/02/18 09:24:24;;;;;;;32.58;20.92;;;;;;;6.31;100.00;102653.56;10341394;28;20081;-70
2024/02/18 09:29:21;;;;;;;28.02;20.45;;;;;;;6.43;100.00;102654.38;10350130;27;20040;-69
2024/02/18 09:34:18;;;;;;;31.45;20.30;;;;;;;6.49;100.00;102645.22;10345206;27;20040;-69
2024/02/18 09:39:15;;;;;;;31.08;19.77;;;;;;;6.59;100.00;102641.06;10350078;27;20052;-69
2024/02/18 09:44:14;;;;;;;30.10;20.83;;;;;;;6.76;100.00;102635.66;10345670;27;20094;-70
2024/02/18 09:49:12;;;;;;;30.25;20.67;;;;;;;6.85;100.00;102639.63;10345772;27;20052;-70
2024/02/18 09:54:10;;;;;;;32.40;22.67;;;;;;;6.90;100.00;102637.81;10346450;27;20048;-69
2024/02/18 09:59:08;;;;;;;33.10;22.00;;;;;;;6.99;100.00;102629.25;10346489;27;20051;-69
2024/02/18 10:04:04;;;;;;;30.30;21.00;;;;;;;7.14;100.00;102621.31;10330965;28;20043;-70
2024/02/18 10:09:01;;;;;;;35.40;21.98;;;;;;;7.22;100.00;102617.34;10341085;27;20051;-70
2024/02/18 10:13:58;;;;;;;38.70;22.70;;;;;;;7.16;100.00;102600.97;10335537;27;20587;-70
2024/02/18 10:18:55;;;;;;;32.90;21.27;;;;;;;7.29;100.00;102586.19;10346715;27;20450;-70
2024/02/18 10:23:53;;;;;;;34.72;22.42;;;;;;;7.31;100.00;102573.19;10341780;27;20139;-70
2024/02/18 10:28:49;;;;;;;39.38;23.27;;;;;;;7.29;100.00;102561.72;10348074;27;20040;-69
2024/02/18 10:33:46;;;;;;;40.35;22.25;;;;;;;7.35;100.00;102552.53;10343444;27;20051;-70
2024/02/18 10:38:46;;;;;;;33.80;21.80;;;;;;;7.34;100.00;102540.00;10343219;27;20545;-70
2024/02/18 10:43:48;;;;;;;30.17;21.45;;;;;;;7.33;100.00;102526.66;10340968;27;20054;-70
2024/02/18 10:48:49;;;;;;;32.30;20.52;;;;;;;7.37;100.00;102517.72;10340041;27;20040;-71
2024/02/18 10:53:53;;;;;;;33.45;21.15;;;;;;;7.48;100.00;102501.53;10339632;27;20101;-71
2024/02/18 10:59:02;;;;;;;33.00;22.23;;;;;;;7.61;100.00;102498.41;10340316;27;20033;-71
2024/02/18 11:04:02;;;;;;;35.22;20.90;;;;;;;7.70;100.00;102477.84;10351248;27;20136;-70
2024/02/18 11:09:08;;;;;;;33.33;22.23;;;;;;;7.79;100.00;102472.75;10339239;27;20113;-70
2024/02/18 11:14:06;;;;;;;33.95;21.60;;;;;;;7.86;100.00;102464.41;10358774;27;20039;-71
2024/02/18 11:19:03;;;;;;;29.70;19.98;;;;;;;7.87;100.00;102460.59;10358259;27;20407;-71
2024/02/18 11:24:00;;;;;;;31.30;20.92;;;;;;;7.85;100.00;102440.97;10347066;27;20055;-70
2024/02/18 11:29:01;;;;;;;30.13;19.38;;;;;;;7.90;100.00;102443.75;10350875;27;20040;-70
2024/02/18 11:33:58;;;;;;;24.35;17.05;;;;;;;7.98;100.00;102425.03;10343657;27;20051;-73
2024/02/18 11:38:57;;;;;;;22.10;16.67;;;;;;;8.01;100.00;102426.41;10351076;27;20106;-71
2024/02/18 11:43:54;;;;;;;27.55;17.83;;;;;;;7.96;100.00;102415.47;10331246;28;20048;-71
2024/02/18 11:48:52;;;;;;;24.05;15.68;;;;;;;7.92;100.00;102414.34;10347660;27;20138;-69
2024/02/18 11:53:49;;;;;;;23.10;15.63;;;;;;;7.90;100.00;102394.72;10347185;27;20052;-70
2024/02/18 11:58:46;;;;;;;19.08;13.73;;;;;;;7.91;100.00;102386.28;10339077;27;20079;-70
2024/02/18 12:03:47;;;;;;;17.10;13.02;;;;;;;7.87;100.00;102374.28;10341661;27;20039;-70
2024/02/18 12:08:43;;;;;;;19.35;13.13;;;;;;;7.86;100.00;102366.34;10348409;27;20040;-70
2024/02/18 12:13:40;;;;;;;19.60;13.13;;;;;;;7.92;100.00;102343.53;10338079;28;20050;-69
2024/02/18 12:18:36;;;;;;;18.20;13.00;;;;;;;7.94;100.00;102325.03;10340097;27;20048;-71
2024/02/18 12:23:40;;;;;;;21.70;13.48;;;;;;;7.93;100.00;102307.03;10340798;27;20055;-70
2024/02/18 12:28:37;;;;;;;17.75;12.60;;;;;;;7.96;100.00;102311.94;10351438;27;20471;-70
2024/02/18 12:33:33;;;;;;;15.18;12.10;;;;;;;7.93;100.00;102286.06;10344985;27;20048;-71
2024/02/18 12:38:31;;;;;;;17.95;12.75;;;;;;;7.97;100.00;102270.03;10334458;27;20052;-70
2024/02/18 12:43:30;;;;;;;16.13;12.95;;;;;;;7.96;100.00;102268.38;10348347;27;20043;-70
2024/02/18 12:48:30;;;;;;;17.00;12.18;;;;;;;7.99;100.00;102254.25;10346166;27;20040;-70
2024/02/18 12:53:26;;;;;;;17.30;13.90;;;;;;;8.07;100.00;102242.84;10350239;27;20135;-70
2024/02/18 12:58:24;;;;;;;17.95;13.25;;;;;;;8.02;100.00;102235.47;10350848;27;20097;-71
2024/02/18 13:03:20;;;;;;;17.38;12.95;;;;;;;8.04;100.00;102227.03;10342218;27;20096;-71
2024/02/18 13:08:17;;;;;;;24.13;13.68;;;;;;;8.02;100.00;102207.41;10353452;27;20055;-70
2024/02/18 13:13:13;;;;;;;17.38;12.93;;;;;;;8.00;100.00;102194.03;10345242;27;20059;-70
2024/02/18 13:18:10;;;;;;;18.40;12.55;;;;;;;8.01;100.00;102184.00;10368507;27;20049;-70
2024/02/18 13:23:07;;;;;;;17.02;11.65;;;;;;;7.99;100.00;102162.47;10366445;27;20126;-69
2024/02/18 13:28:04;;;;;;;17.05;11.73;;;;;;;8.00;100.00;102152.38;10343672;27;20048;-71
2024/02/18 13:33:00;;;;;;;15.52;11.35;;;;;;;7.95;100.00;102133.28;10330439;28;20074;-67
2024/02/18 13:37:57;;;;;;;17.65;10.85;;;;;;;7.97;100.00;102117.50;10342706;27;21357;-71
2024/02/18 13:42:53;;;;;;;15.98;11.32;;;;;;;7.95;100.00;102108.78;10340767;27;20056;-68
2024/02/18 13:47:54;;;;;;;16.63;11.10;;;;;;;7.93;100.00;102089.16;10335695;27;20045;-69
2024/02/18 13:52:54;;;;;;;16.63;11.55;;;;;;;7.88;100.00;102083.69;10348508;27;20052;-68
2024/02/18 13:57:51;;;;;;;12.90;9.98;;;;;;;7.84;100.00;102074.41;10342528;28;20087;-68
2024/02/18 14:02:48;;;;;;;17.17;10.82;;;;;;;7.83;100.00;102056.44;10342792;27;20578;-69
2024/02/18 14:07:46;;;;;;;16.33;9.75;;;;;;;7.78;100.00;102047.16;10344977;27;20047;-71
2024/02/18 14:12:43;;;;;;;17.83;10.00;;;;;;;7.80;100.00;102036.84;10352677;27;20047;-71
2024/02/18 14:17:41;;;;;;;15.13;9.68;;;;;;;7.79;100.00;102018.84;10351846;27;20041;-71
2024/02/18 14:22:39;;;;;;;12.32;10.15;;;;;;;7.80;100.00;102006.88;10342572;27;20056;-71
2024/02/18 14:27:35;;;;;;;20.35;11.40;;;;;;;7.80;100.00;101987.81;10330179;27;20393;-71
2024/02/18 14:32:32;;;;;;;17.88;10.95;;;;;;;7.74;100.00;101964.38;10342654;27;20044;-71
2024/02/18 14:37:28;;;;;;;15.48;10.93;;;;;;;7.76;100.00;101954.03;10339269;27;20044;-69
2024/02/18 14:42:25;;;;;;;16.60;10.38;;;;;;;7.73;100.00;101938.25;10342599;27;20836;-70
2024/02/18 14:47:21;;;;;;;17.95;11.43;;;;;;;7.73;100.00;101929.28;10345977;27;20047;-70
2024/02/18 14:52:18;;;;;;;18.77;11.60;;;;;;;7.75;100.00;101914.31;10349726;27;20059;-71
2024/02/18 14:57:15;;;;;;;20.02;13.15;;;;;;;7.73;100.00;101891.97;10347025;27;20052;-70
2024/02/18 15:02:11;;;;;;;21.13;12.60;;;;;;;7.74;100.00;101881.91;10344845;27;20591;-70
2024/02/18 15:07:10;;;;;;;22.00;13.20;;;;;;;7.75;100.00;101873.47;10325108;27;20051;-70
2024/02/18 15:12:07;;;;;;;21.80;13.38;;;;;;;7.73;100.00;101867.47;10342121;27;20048;-69
2024/02/18 15:17:05;;;;;;;20.85;12.38;;;;;;;7.71;100.00;101847.88;10345052;27;20503;-70
2024/02/18 15:22:02;;;;;;;18.33;12.50;;;;;;;7.70;100.00;101834.50;10336361;27;20055;-71
2024/02/18 15:26:58;;;;;;;23.30;13.20;;;;;;;7.67;100.00;101818.72;10349398;27;20577;-70
2024/02/18 15:31:55;;;;;;;18.25;12.57;;;;;;;7.65;100.00;101805.38;10346158;27;20487;-70
2024/02/18 15:36:51;;;;;;;22.33;13.35;;;;;;;7.68;100.00;101783.09;10350859;27;20070;-70
2024/02/18 15:41:48;;;;;;;21.25;12.75;;;;;;;7.69;100.00;101776.53;10347164;27;20393;-70
2024/02/18 15:46:44;;;;;;;19.58;12.15;;;;;;;7.70;100.00;101763.72;10347920;27;20108;-70
2024/02/18 15:51:43;;;;;;;25.40;13.20;;;;;;;7.72;100.00;101751.47;10343563;27;20052;-70
2024/02/18 15:56:41;;;;;;;17.05;11.70;;;;;;;7.70;100.00;101737.31;10351313;27;20666;-70
2024/02/18 16:01:38;;;;;;;20.02;11.05;;;;;;;7.72;100.00;101732.44;10331507;27;20052;-70
2024/02/18 16:06:38;;;;;;;16.65;11.25;;;;;;;7.71;100.00;101710.94;10342393;27;20063;-71
2024/02/18 16:11:38;;;;;;;17.70;11.75;;;;;;;7.72;100.00;101707.91;10348891;27;20047;-72
2024/02/18 16:16:35;;;;;;;17.02;12.00;;;;;;;7.70;100.00;101682.88;10340870;27;20048;-70
2024/02/18 16:21:32;;;;;;;21.95;11.63;;;;;;;7.70;100.00;101669.28;10343467;27;20072;-70
2024/02/18 16:26:29;;;;;;;16.63;11.35;;;;;;;7.69;100.00;101658.69;10341748;27;21510;-70
2024/02/18 16:31:26;;;;;;;17.02;11.02;;;;;;;7.69;100.00;101654.03;10338570;27;20413;-70
2024/02/18 16:36:22;;;;;;;16.98;11.57;;;;;;;7.67;100.00;101639.88;10337481;27;20714;-69
2024/02/18 16:41:19;;;;;;;17.85;10.85;;;;;;;7.71;100.00;101635.53;10350331;27;20076;-70
2024/02/18 16:46:15;;;;;;;18.00;11.57;;;;;;;7.72;100.00;101626.25;10348060;27;20083;-70
2024/02/18 16:51:13;;;;;;;16.30;10.95;;;;;;;7.73;100.00;101611.56;10357078;27;20040;-70
2024/02/18 16:56:11;;;;;;;18.83;12.25;;;;;;;7.73;100.00;101594.44;10350732;27;20043;-69
2024/02/18 17:01:07;;;;;;;16.90;10.80;;;;;;;7.75;100.00;101597.66;10352688;27;20044;-70
2024/02/18 17:06:05;;;;;;;17.98;11.40;;;;;;;7.75;100.00;101586.78;10345815;27;20068;-69
2024/02/18 17:11:02;;;;;;;17.58;11.40;;;;;;;7.71;100.00;101574.84;10347142;27;20052;-70
2024/02/18 17:15:59;;;;;;;17.95;11.50;;;;;;;7.70;100.00;101563.09;10351464;27;20127;-70
2024/02/18 17:20:56;;;;;;;16.27;10.10;;;;;;;7.66;100.00;101556.59;10351698;27;20554;-69
2024/02/18 17:25:52;;;;;;;16.48;11.32;;;;;;;7.72;100.00;101544.59;10348094;27;20055;-70
2024/02/18 17:30:51;;;;;;;15.75;10.82;;;;;;;7.73;100.00;101535.34;10344176;27;20101;-70
2024/02/18 17:35:48;;;;;;;15.65;10.77;;;;;;;7.69;100.00;101523.38;10339153;28;20056;-69
2024/02/18 17:40:46;;;;;;;18.55;10.40;;;;;;;7.69;100.00;101515.22;10345106;27;20039;-70
2024/02/18 17:45:44;;;;;;;20.13;10.90;;;;;;;7.67;100.00;101509.22;10348204;27;20138;-69
2024/02/18 17:50:41;;;;;;;16.88;10.38;;;;;;;7.69;100.00;101504.31;10353634;27;20044;-68
2024/02/18 17:55:38;;;;;;;15.60;9.80;;;;;;;7.67;100.00;101495.63;10353339;27;20055;-70
2024/02/18 18:00:34;;;;;;;15.07;10.25;;;;;;;7.64;100.00;101488.03;10350097;27;20217;-69
2024/02/18 18:05:31;;;;;;;20.08;11.13;;;;;;;7.69;100.00;101476.28;10348531;27;20044;-70
2024/02/18 18:10:27;;;;;;;16.38;9.70;;;;;;;7.64;100.00;101473.59;10359219;27;20047;-70
2024/02/18 18:15:25;;;;;;;15.52;10.05;;;;;;;7.63;100.00;101470.03;10358463;27;20044;-70
2024/02/18 18:20:22;;;;;;;18.52;10.18;;;;;;;7.65;100.00;101467.88;10348329;27;20058;-70
2024/02/18 18:25:18;;;;;;;16.02;9.02;;;;;;;7.56;100.00;101458.66;10352973;27;20060;-70
2024/02/18 18:30:15;;;;;;;16.73;10.35;;;;;;;7.60;100.00;101448.84;10355196;27;20048;-70
2024/02/18 18:35:12;;;;;;;13.55;9.18;;;;;;;7.62;100.00;101435.78;10349091;27;20059;-70
2024/02/18 18:40:09;;;;;;;13.57;9.35;;;;;;;7.65;100.00;101435.19;10361660;27;20414;-70
2024/02/18 18:45:07;;;;;;;14.75;9.55;;;;;;;7.65;100.00;101423.50;10347255;28;20044;-70
2024/02/18 18:50:04;;;;;;;15.25;9.43;;;;;;;7.65;100.00;101407.97;10358934;27;20060;-70
2024/02/18 18:55:01;;;;;;;10.73;8.65;;;;;;;7.61;100.00;101406.91;10353711;28;20587;-70
2024/02/18 18:59:57;;;;;;;10.75;8.20;;;;;;;7.56;100.00;101398.78;10354718;28;20143;-70
2024/02/18 19:04:54;;;;;;;12.32;9.00;;;;;;;7.54;100.00;101393.63;10345871;28;20474;-70
2024/02/18 19:09:51;;;;;;;12.63;9.32;;;;;;;7.58;100.00;101391.16;10354426;27;20134;-70
2024/02/18 19:14:48;;;;;;;13.05;9.07;;;;;;;7.58;100.00;101377.53;10352063;27;20044;-70
2024/02/18 19:19:44;;;;;;;13.70;9.30;;;;;;;7.59;100.00;101376.47;10361143;27;20033;-70
2024/02/18 19:24:43;;;;;;;19.42;9.75;;;;;;;7.60;100.00;101372.63;10349094;27;20036;-69
2024/02/18 19:29:39;;;;;;;11.48;8.85;;;;;;;7.55;100.00;101365.31;10347828;27;20070;-70
2024/02/18 19:34:36;;;;;;;13.95;9.68;;;;;;;7.59;100.00;101360.13;10356674;27;20067;-70
2024/02/18 19:39:32;;;;;;;15.13;10.00;;;;;;;7.57;100.00;101351.44;10360480;27;20051;-70
2024/02/18 19:44:29;;;;;;;14.65;10.30;;;;;;;7.55;100.00;101348.19;10351812;27;20063;-68
2024/02/18 19:49:26;;;;;;;12.50;8.90;;;;;;;7.54;100.00;101343.81;10352135;27;20047;-70
2024/02/18 19:54:28;;;;;;;13.07;9.40;;;;;;;7.60;100.00;101334.53;10353685;27;20052;-70
2024/02/18 19:59:26;;;;;;;11.75;9.05;;;;;;;7.64;100.00;101332.88;10353733;27;20075;-70
2024/02/18 20:04:23;;;;;;;15.13;9.98;;;;;;;7.54;100.00;101330.22;10353989;27;20040;-70
2024/02/18 20:09:20;;;;;;;11.93;9.77;;;;;;;7.59;100.00;101316.59;10349961;27;20040;-71
2024/02/18 20:14:18;;;;;;;14.73;10.38;;;;;;;7.57;100.00;101318.78;10358174;27;20048;-70
2024/02/18 20:19:14;;;;;;;14.60;10.20;;;;;;;7.59;100.00;101305.72;10351702;27;20461;-70
2024/02/18 20:24:12;;;;;;;12.23;9.15;;;;;;;7.56;100.00;101306.25;10354376;27;20617;-70
2024/02/18 20:29:08;;;;;;;13.68;10.20;;;;;;;7.64;100.00;101300.22;10349435;27;20048;-70
2024/02/18 20:34:06;;;;;;;11.13;8.55;;;;;;;7.63;100.00;101298.59;10342598;27;20102;-70
2024/02/18 20:39:05;;;;;;;13.50;10.43;;;;;;;7.62;100.00;101296.97;10350282;27;20055;-70
2024/02/18 20:44:02;;;;;;;14.25;10.82;;;;;;;7.58;100.00;101304.06;10340036;28;20060;-71
2024/02/18 20:48:59;;;;;;;13.82;10.93;;;;;;;7.50;100.00;101300.06;10350759;27;20555;-71
2024/02/18 20:53:55;;;;;;;14.60;10.65;;;;;;;7.60;100.00;101301.88;10342751;28;20052;-70
2024/02/18 20:58:52;;;;;;;15.27;11.07;;;;;;;7.63;100.00;101306.75;10345394;27;20051;-71
2024/02/18 21:03:48;;;;;;;14.13;10.60;;;;;;;7.63;100.00;101300.50;10343970;27;20036;-70
2024/02/18 21:08:46;;;;;;;12.55;10.98;;;;;;;7.66;100.00;101306.19;10346226;27;20044;-70
2024/02/18 21:13:43;;;;;;;15.73;11.73;;;;;;;7.62;100.00;101313.31;10344715;27;20036;-70
2024/02/18 21:18:39;;;;;;;27.15;17.05;;;;;;;7.56;100.00;101317.13;10351423;27;20059;-71
2024/02/18 21:23:36;;;;;;;16.13;11.57;;;;;;;7.56;100.00;101314.41;10346843;27;20427;-70
2024/02/18 21:28:32;;;;;;;11.85;10.13;;;;;;;7.58;100.00;101320.41;10352500;27;20050;-71
2024/02/18 21:33:29;;;;;;;12.02;9.82;;;;;;;7.65;100.00;101314.63;10348801;27;20059;-71
2024/02/18 21:38:26;;;;;;;12.73;11.05;;;;;;;7.71;100.00;101308.88;10343690;27;20454;-70
2024/02/18 21:43:22;;;;;;;14.38;10.68;;;;;;;7.60;100.00;101312.75;10345212;27;20503;-68
2024/02/18 21:48:19;;;;;;;12.43;10.60;;;;;;;7.58;100.00;101317.69;10349328;27;20044;-72
2024/02/18 21:53:15;;;;;;;12.93;10.00;;;;;;;7.66;100.00;101308.09;10344694;27;20056;-70
2024/02/18 21:58:12;;;;;;;12.88;10.35;;;;;;;7.56;100.00;101317.13;10347128;28;20133;-71
2024/02/18 22:03:09;;;;;;;14.70;11.02;;;;;;;7.58;100.00;101320.41;10353025;27;20051;-71
2024/02/18 22:08:05;;;;;;;12.55;10.00;;;;;;;7.57;100.00;101318.78;10354008;27;20455;-71
2024/02/18 22:13:02;;;;;;;11.95;9.95;;;;;;;7.45;100.00;101327.31;10353420;27;20048;-71
2024/02/18 22:17:59;;;;;;;12.70;10.27;;;;;;;7.46;100.00;101325.38;10341359;27;20049;-72